createdAt,value
2022-12-18T00:01:45.868Z,99297.03
2022-12-18T00:04:24.809Z,99298.03
2022-12-18T00:06:57.406Z,99295.69
2022-12-18T00:09:31.591Z,99296.38
2022-12-18T00:14:47.009Z,99295.22
2022-12-18T00:17:16.687Z,99299.59
2022-12-18T00:19:46.913Z,99309.78
2022-12-18T00:22:17.649Z,99313.22
2022-12-18T00:24:47.712Z,99310.88
2022-12-18T00:27:19.734Z,99308.97
2022-12-18T00:29:51.688Z,99310.66
2022-12-18T00:32:21.330Z,99305.63
2022-12-18T00:34:51.579Z,99316.47
2022-12-18T00:37:23.819Z,99319.78
2022-12-18T00:39:53.337Z,99317.25
2022-12-18T00:42:41.691Z,99321.69
2022-12-18T00:45:13.371Z,99309.03
2022-12-18T00:47:43.993Z,99307.34
2022-12-18T00:50:14.890Z,99306.56
2022-12-18T00:52:45.293Z,99301.63
2022-12-18T00:55:16.921Z,99297.63
2022-12-18T00:57:49.927Z,99290.72
2022-12-18T01:00:20.414Z,99286.38
2022-12-18T01:02:50.546Z,99279.78
2022-12-18T01:05:21.501Z,99291.56
2022-12-18T01:07:50.645Z,99288.09
2022-12-18T01:10:19.980Z,99301.75
2022-12-18T01:12:51.255Z,99289.94
2022-12-18T01:15:20.939Z,99294.00
2022-12-18T01:17:50.557Z,99291.56
2022-12-18T01:20:20.048Z,99287.38
2022-12-18T01:22:50.078Z,99291.44
2022-12-18T01:25:20.988Z,99301.56
2022-12-18T01:27:52.470Z,99298.97
2022-12-18T01:30:23.121Z,99303.22
2022-12-18T01:32:54.271Z,99304.91
2022-12-18T01:35:24.134Z,99306.66
2022-12-18T01:37:57.865Z,99310.03
2022-12-18T01:40:27.734Z,99325.31
2022-12-18T01:42:59.398Z,99335.53
2022-12-18T01:45:32.436Z,99333.06
2022-12-18T01:48:06.305Z,99349.03
2022-12-18T01:50:39.905Z,99356.63
2022-12-18T01:53:16.454Z,99354.09
2022-12-18T01:55:51.732Z,99355.09
2022-12-18T01:58:26.783Z,99357.63
2022-12-18T02:01:01.064Z,99344.88
2022-12-18T02:03:30.827Z,99347.63
2022-12-18T02:06:12.678Z,99334.06
2022-12-18T02:08:53.775Z,99324.84
2022-12-18T02:11:41.483Z,99314.81
2022-12-18T02:14:29.315Z,99315.66
2022-12-18T02:17:05.853Z,99316.72
2022-12-18T02:20:05.464Z,99326.91
2022-12-18T02:22:53.678Z,99332.69
2022-12-18T02:25:49.775Z,99339.41
2022-12-18T02:28:26.039Z,99321.63
2022-12-18T02:31:02.644Z,99325.09
2022-12-18T02:33:36.262Z,99326.91
2022-12-18T02:36:08.508Z,99312.50
2022-12-18T02:38:39.931Z,99308.31
2022-12-18T02:41:10.994Z,99312.00
2022-12-18T02:43:43.278Z,99301.00
2022-12-18T02:46:35.501Z,99310.28
2022-12-18T02:49:31.145Z,99323.91
2022-12-18T02:52:17.656Z,99323.00
2022-12-18T02:55:41.073Z,99312.00
2022-12-18T02:58:20.865Z,99308.72
2022-12-18T03:01:01.931Z,99306.97
2022-12-18T03:03:39.265Z,99307.81
2022-12-18T03:06:21.280Z,99307.81
2022-12-18T03:09:00.626Z,99310.28
2022-12-18T03:12:16.604Z,99319.69
2022-12-18T03:14:51.732Z,99309.63
2022-12-18T03:17:25.172Z,99316.38
2022-12-18T03:19:59.980Z,99323.88
2022-12-18T03:22:36.653Z,99316.41
2022-12-18T03:25:12.022Z,99309.09
2022-12-18T03:27:48.877Z,99318.38
2022-12-18T03:30:20.619Z,99327.56
2022-12-18T03:33:04.322Z,99338.44
2022-12-18T03:35:42.440Z,99329.09
2022-12-18T03:38:14.317Z,99323.22
2022-12-18T03:41:06.400Z,99330.03
2022-12-18T03:43:53.513Z,99317.38
2022-12-18T03:46:33.071Z,99327.41
2022-12-18T03:49:14.283Z,99325.59
2022-12-18T03:51:51.606Z,99325.59
2022-12-18T03:54:24.262Z,99323.78
2022-12-18T03:57:01.900Z,99318.63
2022-12-18T03:59:34.652Z,99309.28
2022-12-18T04:02:08.142Z,99310.97
2022-12-18T04:04:41.660Z,99312.63
2022-12-18T04:07:12.283Z,99300.06
2022-12-18T04:09:45.114Z,99306.75
2022-12-18T04:12:14.674Z,99299.09
2022-12-18T04:14:44.725Z,99304.22
2022-12-18T04:17:14.873Z,99295.84
2022-12-18T04:19:46.197Z,99289.94
2022-12-18T04:22:16.068Z,99294.19
2022-12-18T04:24:45.508Z,99297.63
2022-12-18T04:27:15.791Z,99296.00
2022-12-18T04:29:47.627Z,99312.78
2022-12-18T04:32:19.190Z,99306.75
2022-12-18T04:34:51.501Z,99310.03
2022-12-18T04:37:20.454Z,99307.50
2022-12-18T04:39:50.001Z,99306.69
2022-12-18T04:42:20.144Z,99310.91
2022-12-18T04:44:50.622Z,99305.78
2022-12-18T04:47:20.793Z,99306.59
2022-12-18T04:49:51.744Z,99304.91
2022-12-18T04:52:26.039Z,99298.09
2022-12-18T04:54:55.808Z,99313.19
2022-12-18T04:57:26.477Z,99308.28
2022-12-18T04:59:56.584Z,99299.75
2022-12-18T05:02:26.208Z,99300.59
2022-12-18T05:04:56.994Z,99302.16
2022-12-18T05:07:27.040Z,99298.84
2022-12-18T05:09:57.009Z,99300.44
2022-12-18T05:12:26.418Z,99302.06
2022-12-18T05:14:56.334Z,99303.69
2022-12-18T05:17:24.876Z,99304.53
2022-12-18T05:19:55.818Z,99304.41
2022-12-18T05:22:25.913Z,99304.38
2022-12-18T05:24:56.184Z,99312.88
2022-12-18T05:27:26.615Z,99313.63
2022-12-18T05:29:57.931Z,99306.03
2022-12-18T05:32:26.926Z,99317.03
2022-12-18T05:34:58.956Z,99323.78
2022-12-18T05:37:28.685Z,99327.84
2022-12-18T05:39:58.418Z,99336.25
2022-12-18T05:42:28.063Z,99335.34
2022-12-18T05:44:57.020Z,99333.72
2022-12-18T05:47:27.863Z,99333.66
2022-12-18T05:49:59.281Z,99327.75
2022-12-18T05:52:28.609Z,99322.72
2022-12-18T05:55:00.626Z,99325.22
2022-12-18T05:57:30.946Z,99326.91
2022-12-18T06:00:00.918Z,99326.91
2022-12-18T06:02:31.643Z,99336.13
2022-12-18T06:05:03.118Z,99336.97
2022-12-18T06:07:33.779Z,99336.97
2022-12-18T06:10:04.161Z,99336.97
2022-12-18T06:12:35.296Z,99332.72
2022-12-18T06:15:04.575Z,99340.22
2022-12-18T06:17:34.918Z,99341.09
2022-12-18T06:20:08.066Z,99345.28
2022-12-18T06:22:38.855Z,99343.50
2022-12-18T06:25:11.085Z,99332.59
2022-12-18T06:27:42.246Z,99332.69
2022-12-18T06:30:17.404Z,99343.66
2022-12-18T06:32:51.807Z,99343.66
2022-12-18T06:35:27.816Z,99337.81
2022-12-18T06:37:57.192Z,99332.78
2022-12-18T06:40:26.687Z,99338.69
2022-12-18T06:42:56.816Z,99335.34
2022-12-18T06:45:27.082Z,99322.66
2022-12-18T06:47:58.239Z,99327.75
2022-12-18T06:50:30.482Z,99328.59
2022-12-18T06:53:01.049Z,99332.84
2022-12-18T06:55:32.151Z,99337.06
2022-12-18T06:58:01.740Z,99336.19
2022-12-18T07:00:31.108Z,99330.28
2022-12-18T07:03:00.501Z,99330.38
2022-12-18T07:05:31.461Z,99330.28
2022-12-18T07:08:02.150Z,99332.84
2022-12-18T07:10:32.764Z,99335.34
2022-12-18T07:13:02.016Z,99335.31
2022-12-18T07:15:31.696Z,99337.75
2022-12-18T07:18:02.268Z,99336.97
2022-12-18T07:20:34.470Z,99337.66
2022-12-18T07:23:06.973Z,99346.94
2022-12-18T07:25:38.067Z,99346.09
2022-12-18T07:28:08.871Z,99346.03
2022-12-18T07:30:41.509Z,99346.91
2022-12-18T07:33:17.610Z,99351.16
2022-12-18T07:35:48.115Z,99348.63
2022-12-18T07:38:19.301Z,99352.00
2022-12-18T07:40:48.716Z,99360.31
2022-12-18T07:43:19.545Z,99351.06
2022-12-18T07:45:52.651Z,99362.00
2022-12-18T07:48:22.079Z,99362.84
2022-12-18T07:50:52.394Z,99367.13
2022-12-18T07:53:22.100Z,99377.19
2022-12-18T07:56:25.424Z,99378.72
2022-12-18T07:58:47.662Z,99374.41
2022-12-18T08:01:18.729Z,99369.28
2022-12-18T08:03:48.882Z,99366.66
2022-12-18T08:06:24.158Z,99360.66
2022-12-18T08:08:55.901Z,99364.91
2022-12-18T08:11:27.387Z,99348.06
2022-12-18T08:13:57.981Z,99344.56
2022-12-18T08:16:28.257Z,99341.06
2022-12-18T08:18:58.460Z,99341.75
2022-12-18T08:21:31.976Z,99333.22
2022-12-18T08:24:03.809Z,99327.25
2022-12-18T08:26:33.915Z,99332.28
2022-12-18T08:29:05.447Z,99323.69
2022-12-18T08:31:34.780Z,99311.72
2022-12-18T08:34:04.471Z,99308.16
2022-12-18T08:36:36.279Z,99300.47
2022-12-18T08:39:06.355Z,99307.13
2022-12-18T08:41:38.928Z,99319.69
2022-12-18T08:44:26.333Z,99319.53
2022-12-18T08:46:57.125Z,99324.47
2022-12-18T08:49:27.816Z,99326.13
2022-12-18T08:52:00.529Z,99326.88
2022-12-18T08:54:32.571Z,99336.91
2022-12-18T08:57:02.146Z,99329.19
2022-12-18T08:59:33.553Z,99326.50
2022-12-18T09:02:04.627Z,99331.53
2022-12-18T09:04:35.582Z,99328.06
2022-12-18T09:07:06.629Z,99335.53
2022-12-18T09:09:37.346Z,99342.09
2022-12-18T09:12:07.163Z,99344.50
2022-12-18T09:14:37.763Z,99351.09
2022-12-18T09:17:07.315Z,99353.44
2022-12-18T09:19:38.196Z,99349.09
2022-12-18T09:22:08.437Z,99343.00
2022-12-18T09:24:39.481Z,99353.00
2022-12-18T09:27:10.665Z,99357.88
2022-12-18T09:29:41.078Z,99354.31
2022-12-18T09:32:10.527Z,99352.44
2022-12-18T09:34:40.726Z,99351.38
2022-12-18T09:37:12.445Z,99348.69
2022-12-18T09:39:42.750Z,99350.22
2022-12-18T09:42:23.405Z,99355.97
2022-12-18T09:44:56.796Z,99371.03
2022-12-18T09:47:33.074Z,99363.25
2022-12-18T09:50:15.722Z,99359.75
2022-12-18T09:52:55.589Z,99359.63
2022-12-18T09:55:36.823Z,99349.31
2022-12-18T09:58:16.261Z,99341.53
2022-12-18T10:00:46.969Z,99339.63
2022-12-18T10:03:18.954Z,99333.56
2022-12-18T10:06:05.927Z,99328.38
2022-12-18T10:08:53.283Z,99322.28
2022-12-18T10:11:41.827Z,99317.91
2022-12-18T10:14:23.560Z,99319.41
2022-12-18T10:17:11.270Z,99320.97
2022-12-18T10:19:51.298Z,99312.38
2022-12-18T10:22:51.552Z,99313.00
2022-12-18T10:25:28.731Z,99322.19
2022-12-18T10:28:09.724Z,99327.09
2022-12-18T10:30:42.534Z,99327.09
2022-12-18T10:33:17.418Z,99321.03
2022-12-18T10:35:50.253Z,99318.34
2022-12-18T10:38:31.318Z,99320.00
2022-12-18T10:41:04.535Z,99323.22
2022-12-18T10:43:35.341Z,99310.38
2022-12-18T10:46:18.846Z,99303.56
2022-12-18T10:48:56.627Z,99308.44
2022-12-18T10:51:31.378Z,99304.91
2022-12-18T10:54:09.208Z,99304.88
2022-12-18T10:56:42.565Z,99306.38
2022-12-18T10:59:16.448Z,99295.44
2022-12-18T11:01:53.212Z,99303.00
2022-12-18T11:04:25.911Z,99308.00
2022-12-18T11:07:04.880Z,99308.72
2022-12-18T11:09:36.448Z,99298.41
2022-12-18T11:12:19.296Z,99281.41
2022-12-18T11:14:53.768Z,99281.25
2022-12-18T11:17:27.497Z,99287.16
2022-12-18T11:19:59.957Z,99278.59
2022-12-18T11:22:32.181Z,99272.50
2022-12-18T11:28:01.126Z,99255.31
2022-12-18T11:30:33.372Z,99264.53
2022-12-18T11:33:09.753Z,99260.19
2022-12-18T11:35:48.369Z,99260.09
2022-12-18T11:38:25.813Z,99270.16
2022-12-18T11:41:05.699Z,99269.94
2022-12-18T11:43:46.623Z,99267.31
2022-12-18T11:46:23.292Z,99269.94
2022-12-18T11:49:02.182Z,99266.31
2022-12-18T11:51:38.003Z,99267.09
2022-12-18T11:54:15.477Z,99258.34
2022-12-18T11:56:52.200Z,99265.78
2022-12-18T11:59:36.898Z,99261.34
2022-12-18T12:02:32.788Z,99258.69
2022-12-18T12:05:29.056Z,99260.25
2022-12-18T12:08:11.187Z,99251.69
2022-12-18T12:10:56.903Z,99243.13
2022-12-18T12:13:51.387Z,99249.06
2022-12-18T12:16:32.693Z,99256.53
2022-12-18T12:19:27.056Z,99254.75
2022-12-18T12:22:13.658Z,99249.53
2022-12-18T12:25:02.669Z,99243.53
2022-12-18T12:27:46.888Z,99234.13
2022-12-18T12:30:24.379Z,99229.78
2022-12-18T12:33:16.929Z,99225.44
2022-12-18T12:35:58.567Z,99227.94
2022-12-18T12:38:36.343Z,99219.44
2022-12-18T12:41:31.252Z,99216.91
2022-12-18T12:44:06.697Z,99209.13
2022-12-18T12:46:43.284Z,99205.69
2022-12-18T12:49:19.978Z,99204.81
2022-12-18T12:51:58.467Z,99199.63
2022-12-18T12:54:31.265Z,99190.25
2022-12-18T12:57:09.146Z,99185.09
2022-12-18T12:59:50.907Z,99186.63
2022-12-18T13:02:31.814Z,99188.97
2022-12-18T13:05:13.633Z,99186.38
2022-12-18T13:07:52.628Z,99189.75
2022-12-18T13:10:46.721Z,99186.38
2022-12-18T13:13:23.592Z,99184.72
2022-12-18T13:16:12.292Z,99180.31
2022-12-18T13:18:50.419Z,99185.38
2022-12-18T13:21:28.116Z,99182.81
2022-12-18T13:23:59.111Z,99174.25
2022-12-18T13:26:36.320Z,99181.00
2022-12-18T13:29:07.842Z,99181.72
2022-12-18T13:32:22.452Z,99179.16
2022-12-18T13:35:44.330Z,99184.19
2022-12-18T13:38:36.621Z,99179.06
2022-12-18T13:41:26.744Z,99171.50
2022-12-18T13:44:12.844Z,99167.25
2022-12-18T13:46:47.901Z,99177.38
2022-12-18T13:49:28.423Z,99173.03
2022-12-18T13:51:58.972Z,99171.31
2022-12-18T13:54:37.750Z,99172.13
2022-12-18T13:57:28.160Z,99173.03
2022-12-18T13:59:58.835Z,99178.16
2022-12-18T14:02:30.466Z,99167.94
2022-12-18T14:05:01.489Z,99172.13
2022-12-18T14:07:41.839Z,99168.69
2022-12-18T14:10:41.799Z,99166.28
2022-12-18T14:13:13.421Z,99171.25
2022-12-18T14:15:46.017Z,99165.25
2022-12-18T14:18:26.083Z,99171.09
2022-12-18T14:21:01.457Z,99171.09
2022-12-18T14:23:34.562Z,99173.66
2022-12-18T14:26:22.417Z,99170.28
2022-12-18T14:28:54.929Z,99168.56
2022-12-18T14:31:27.684Z,99162.56
2022-12-18T14:33:57.639Z,99166.00
2022-12-18T14:36:30.987Z,99159.19
2022-12-18T14:39:01.879Z,99156.72
2022-12-18T14:41:34.830Z,99158.34
2022-12-18T14:44:15.911Z,99154.03
2022-12-18T14:46:48.422Z,99155.66
2022-12-18T14:49:29.527Z,99148.78
2022-12-18T14:52:03.621Z,99152.16
2022-12-18T14:54:35.135Z,99164.97
2022-12-18T14:57:08.821Z,99163.25
2022-12-18T14:59:38.759Z,99160.72
2022-12-18T15:02:22.260Z,99167.47
2022-12-18T15:05:08.426Z,99161.59
2022-12-18T15:07:45.862Z,99162.44
2022-12-18T15:10:19.578Z,99157.31
2022-12-18T15:12:52.052Z,99155.47
2022-12-18T15:15:49.131Z,99162.28
2022-12-18T15:18:24.710Z,99167.41
2022-12-18T15:20:58.033Z,99167.41
2022-12-18T15:23:32.518Z,99156.31
2022-12-18T15:26:05.680Z,99158.84
2022-12-18T15:28:46.113Z,99157.19
2022-12-18T15:31:47.276Z,99156.25
2022-12-18T15:34:23.879Z,99170.72
2022-12-18T15:36:53.374Z,99163.06
2022-12-18T15:39:24.026Z,99161.34
2022-12-18T15:42:10.601Z,99159.69
2022-12-18T15:44:41.225Z,99164.78
2022-12-18T15:47:15.533Z,99172.38
2022-12-18T15:49:44.957Z,99170.72
2022-12-18T15:52:27.523Z,99168.94
2022-12-18T15:55:14.532Z,99171.56
2022-12-18T15:57:43.928Z,99178.25
2022-12-18T16:00:18.102Z,99173.19
2022-12-18T16:02:48.855Z,99166.38
2022-12-18T16:05:20.170Z,99168.09
2022-12-18T16:07:49.976Z,99171.47
2022-12-18T16:10:19.721Z,99180.94
2022-12-18T16:12:49.797Z,99168.19
2022-12-18T16:15:24.767Z,99158.84
2022-12-18T16:17:55.898Z,99168.22
2022-12-18T16:20:26.360Z,99159.75
2022-12-18T16:22:55.225Z,99166.56
2022-12-18T16:25:28.465Z,99155.56
2022-12-18T16:27:58.669Z,99150.38
2022-12-18T16:30:38.399Z,99155.47
2022-12-18T16:33:09.217Z,99146.38
2022-12-18T16:35:38.442Z,99149.66
2022-12-18T16:38:08.860Z,99152.22
2022-12-18T16:40:58.249Z,99164.94
2022-12-18T16:43:28.572Z,99155.59
2022-12-18T16:46:02.723Z,99152.31
2022-12-18T16:48:31.880Z,99150.56
2022-12-18T16:51:05.909Z,99151.38
2022-12-18T16:53:35.448Z,99150.56
2022-12-18T16:56:06.869Z,99152.22
2022-12-18T16:58:36.552Z,99149.66
2022-12-18T17:01:12.676Z,99173.53
2022-12-18T17:03:45.068Z,99172.78
2022-12-18T17:06:15.571Z,99158.28
2022-12-18T17:08:47.627Z,99155.59
2022-12-18T17:11:17.849Z,99159.97
2022-12-18T17:13:47.628Z,99154.78
2022-12-18T17:16:19.615Z,99155.56
2022-12-18T17:18:49.395Z,99149.66
2022-12-18T17:21:19.383Z,99148.78
2022-12-18T17:23:48.159Z,99159.88
2022-12-18T17:26:18.700Z,99159.00
2022-12-18T17:28:49.376Z,99140.25
2022-12-18T17:31:24.122Z,99138.50
2022-12-18T17:33:53.673Z,99138.31
2022-12-18T17:36:25.379Z,99139.19
2022-12-18T17:38:56.158Z,99141.75
2022-12-18T17:41:26.327Z,99139.19
2022-12-18T17:43:56.671Z,99139.13
2022-12-18T17:46:29.833Z,99135.75
2022-12-18T17:49:00.560Z,99138.31
2022-12-18T17:51:31.441Z,99134.03
2022-12-18T17:54:00.971Z,99126.31
2022-12-18T17:56:31.671Z,99129.75
2022-12-18T17:59:01.544Z,99124.66
2022-12-18T18:01:33.147Z,99119.56
2022-12-18T18:04:02.694Z,99117.75
2022-12-18T18:06:32.060Z,99114.34
2022-12-18T18:09:03.789Z,99112.72
2022-12-18T18:11:59.001Z,99110.09
2022-12-18T18:14:28.870Z,99107.53
2022-12-18T18:17:04.850Z,99094.78
2022-12-18T18:19:36.456Z,99105.81
2022-12-18T18:22:07.575Z,99100.66
2022-12-18T18:24:39.462Z,99097.97
2022-12-18T18:27:08.864Z,99099.59
2022-12-18T18:29:38.152Z,99099.53
2022-12-18T18:32:09.681Z,99085.94
2022-12-18T18:34:39.534Z,99085.06
2022-12-18T18:37:12.755Z,99085.06
2022-12-18T18:39:42.436Z,99077.41
2022-12-18T18:42:11.280Z,99084.91
2022-12-18T18:44:47.159Z,99082.41
2022-12-18T18:47:20.072Z,99083.25
2022-12-18T18:49:50.896Z,99084.09
2022-12-18T18:52:20.599Z,99091.69
2022-12-18T18:55:11.457Z,99090.03
2022-12-18T18:57:39.898Z,99071.41
2022-12-18T19:00:10.731Z,99074.91
2022-12-18T19:02:42.390Z,99074.84
2022-12-18T19:05:12.876Z,99084.16
2022-12-18T19:07:43.053Z,99080.84
2022-12-18T19:10:13.927Z,99076.63
2022-12-18T19:13:01.835Z,99070.72
2022-12-18T19:15:30.957Z,99079.19
2022-12-18T19:18:01.794Z,99073.13
2022-12-18T19:20:31.427Z,99078.16
2022-12-18T19:23:01.399Z,99083.34
2022-12-18T19:25:40.159Z,99079.97
2022-12-18T19:28:19.958Z,99065.25
2022-12-18T19:31:00.794Z,99067.75
2022-12-18T19:33:43.863Z,99064.22
2022-12-18T19:36:22.972Z,99070.97
2022-12-18T19:38:54.344Z,99079.63
2022-12-18T19:41:26.095Z,99081.34
2022-12-18T19:43:59.828Z,99073.47
2022-12-18T19:46:29.407Z,99072.50
2022-12-18T19:49:01.891Z,99063.94
2022-12-18T19:51:34.273Z,99063.94
2022-12-18T19:54:03.793Z,99060.47
2022-12-18T19:56:35.575Z,99060.47
2022-12-18T19:59:06.432Z,99065.72
2022-12-18T20:01:36.828Z,99065.59
2022-12-18T20:04:08.790Z,99064.56
2022-12-18T20:06:49.366Z,99061.16
2022-12-18T20:09:19.890Z,99053.44
2022-12-18T20:11:50.690Z,99051.78
2022-12-18T20:14:23.339Z,99053.44
2022-12-18T20:16:54.617Z,99051.78
2022-12-18T20:19:27.719Z,99055.06
2022-12-18T20:21:58.084Z,99051.63
2022-12-18T20:24:27.968Z,99057.44
2022-12-18T20:26:57.528Z,99055.56
2022-12-18T20:29:26.700Z,99062.38
2022-12-18T20:31:55.695Z,99055.72
2022-12-18T20:34:26.812Z,99053.97
2022-12-18T20:36:57.277Z,99051.34
2022-12-18T20:39:28.555Z,99053.00
2022-12-18T20:41:59.602Z,99058.88
2022-12-18T20:44:28.431Z,99055.41
2022-12-18T20:47:00.379Z,99050.25
2022-12-18T20:49:36.033Z,99053.69
2022-12-18T20:52:07.346Z,99047.75
2022-12-18T20:54:37.424Z,99047.75
2022-12-18T20:57:06.630Z,99049.41
2022-12-18T20:59:36.013Z,99042.66
2022-12-18T21:02:05.374Z,99052.03
2022-12-18T21:04:37.282Z,99046.81
2022-12-18T21:07:08.549Z,99049.25
2022-12-18T21:09:38.690Z,99042.28
2022-12-18T21:12:40.344Z,99047.34
2022-12-18T21:15:26.793Z,99043.06
2022-12-18T21:17:59.373Z,99042.97
2022-12-18T21:20:31.602Z,99036.97
2022-12-18T21:23:12.063Z,99037.72
2022-12-18T21:25:46.599Z,99041.84
2022-12-18T21:28:18.001Z,99046.00
2022-12-18T21:30:48.512Z,99045.06
2022-12-18T21:33:18.393Z,99039.97
2022-12-18T21:35:50.168Z,99047.56
2022-12-18T21:38:19.953Z,99047.56
2022-12-18T21:40:50.348Z,99042.47
2022-12-18T21:43:36.775Z,99044.94
2022-12-18T21:46:08.791Z,99051.53
2022-12-18T21:48:39.193Z,99042.97
2022-12-18T21:51:09.948Z,99042.97
2022-12-18T21:53:39.699Z,99046.44
2022-12-18T21:56:10.089Z,99041.31
2022-12-18T21:58:55.429Z,99050.66
2022-12-18T22:01:37.374Z,99048.88
2022-12-18T22:04:08.519Z,99054.88
2022-12-18T22:06:40.171Z,99053.97
2022-12-18T22:09:09.314Z,99051.28
2022-12-18T22:11:39.065Z,99046.16
2022-12-18T22:14:09.673Z,99050.34
2022-12-18T22:16:38.851Z,99047.78
2022-12-18T22:19:09.482Z,99044.34
2022-12-18T22:21:45.547Z,99037.56
2022-12-18T22:24:19.610Z,99036.63
2022-12-18T22:26:50.781Z,99034.91
2022-12-18T22:29:41.005Z,99038.19
2022-12-18T22:32:13.875Z,99036.38
2022-12-18T22:34:45.897Z,99034.66
2022-12-18T22:37:16.887Z,99030.38
2022-12-18T22:39:46.373Z,99021.81
2022-12-18T22:42:16.220Z,99020.09
2022-12-18T22:44:45.572Z,99020.00
2022-12-18T22:47:18.722Z,99019.84
2022-12-18T22:49:48.849Z,99019.84
2022-12-18T22:52:20.300Z,99020.50
2022-12-18T22:54:54.523Z,99023.00
2022-12-18T22:57:23.799Z,99019.56
2022-12-18T22:59:53.862Z,99016.06
2022-12-18T23:02:23.804Z,99016.91
2022-12-18T23:04:54.119Z,99022.84
2022-12-18T23:07:25.675Z,99023.69
2022-12-18T23:09:59.649Z,99013.34
2022-12-18T23:12:30.671Z,99011.47
2022-12-18T23:15:01.024Z,99014.13
2022-12-18T23:17:31.367Z,99015.03
2022-12-18T23:20:01.520Z,99016.69
2022-12-18T23:22:34.440Z,99008.91
2022-12-18T23:25:03.866Z,99013.06
2022-12-18T23:27:34.673Z,99012.09
2022-12-18T23:30:05.411Z,99015.38
2022-12-18T23:32:37.039Z,99014.47
2022-12-18T23:35:09.628Z,99014.31
2022-12-18T23:37:59.298Z,99006.75
2022-12-18T23:40:30.392Z,98996.38
2022-12-18T23:43:01.764Z,98983.59
2022-12-18T23:45:31.285Z,98986.13
2022-12-18T23:48:00.868Z,98976.81
2022-12-18T23:50:30.312Z,98973.34
2022-12-18T23:53:04.895Z,98984.47
2022-12-18T23:55:41.186Z,98970.84
2022-12-18T23:58:18.308Z,98969.13
